Flight Track Log - Related Links

Times and Time Zones

All times are in EDT time to prevent confusion due to time zone crossing. See the SKW6345 flight status page for this flight to view local times or setup timezone preferences in your user account.

Time Position Orientation Groundspeed Altitude Reporting Facility
EDT Latitude Longitude Course Direction KTS MPH feet Rate Location/Type
Wed 07:04:16 AM 47.9661 -97.1822 224° Southwest 140 161 1,800  Level Minneapolis Center
Wed 07:05:23 AM 47.9558 -97.2403 255° West 213 245 4,300 2,071 Climbing Minneapolis Center
Wed 07:05:40 AM 47.9469 -97.2550 228° Southwest 246 283 4,700 3,000 Climbing Minneapolis Center
Wed 07:06:41 AM 47.8958 -97.3236 222° Southwest 248 285 8,200 2,826 Climbing Minneapolis Center
Wed 07:07:00 AM 47.6835 -97.5499 225° Southwest  Level FlightAware Approximate
Wed 07:07:41 AM 47.8500 -97.3989 228° Southwest 246 283 10,400  Level Minneapolis Center
Wed 07:08:00 AM 47.6195 -97.6437 224° Southwest  Level FlightAware Approximate
Wed 07:08:42 AM 47.7853 -97.4889 223° Southwest 255 293 13,300  Level Minneapolis Center
Wed 07:09:00 AM 47.5547 -97.7363 224° Southwest  Level FlightAware Approximate
Wed 07:09:42 AM 47.7294 -97.5692 224° Southwest 266 306 15,400  Level Minneapolis Center
Wed 07:10:43 AM 47.6731 -97.6506 224° Southwest 275 316 17,600 1,884 Climbing Minneapolis Center
Wed 07:11:43 AM 47.6128 -97.7342 223° Southwest 285 328 19,200 1,686 Climbing Minneapolis Center
Wed 07:12:44 AM 47.5517 -97.8222 224° Southwest 295 339 21,000 2,033 Climbing Minneapolis Center
Wed 07:13:44 AM 47.4919 -97.9050 223° Southwest 290 334 23,300 1,636 Climbing Minneapolis Center
Wed 07:14:45 AM 47.4458 -97.9722 225° Southwest 280 322 24,300 992 Climbing Minneapolis Center
Wed 07:15:45 AM 47.3881 -98.0531 223° Southwest 285 328 25,300 992 Climbing Minneapolis Center
Wed 07:16:46 AM 47.3203 -98.1189 213° Southwest 290 334 26,300 984 Climbing Minneapolis Center
Wed 07:17:47 AM 47.2508 -98.1808 211° Southwest 292 336 27,300 992 Climbing Minneapolis Center
Wed 07:18:47 AM 47.1817 -98.2425 211° Southwest 292 336 28,300 992 Climbing Minneapolis Center
Wed 07:19:48 AM 47.0978 -98.3156 211° Southwest 292 336 29,300 893 Climbing Minneapolis Center
Wed 07:20:48 AM 47.0269 -98.3781 211° Southwest 296 341 30,100 843 Climbing Minneapolis Center
Wed 07:21:49 AM 46.9567 -98.4389 211° Southwest 295 339 31,000 738 Climbing Minneapolis Center
Wed 07:22:50 AM 46.8861 -98.5006 211° Southwest 295 339 31,600 694 Climbing Minneapolis Center
Wed 07:23:50 AM 46.8153 -98.5608 210° Southwest 295 339 32,400 645 Climbing Minneapolis Center
Wed 07:24:51 AM 46.7450 -98.6211 210° Southwest 294 338 32,900 541 Climbing Minneapolis Center
Wed 07:25:52 AM 46.6731 -98.6842 211° Southwest 299 344 33,500 545 Climbing Minneapolis Center
Wed 07:26:52 AM 46.6019 -98.7453 211° Southwest 299 344 34,000 248 Climbing Minneapolis Center
Wed 07:27:53 AM 46.5275 -98.8094 211° Southwest 308 354 34,000 295 Level Minneapolis Center
Wed 07:28:54 AM 46.4514 -98.8739 210° Southwest 314 361 34,600 545 Climbing Minneapolis Center
Wed 07:29:54 AM 46.3772 -98.9375 211° Southwest 312 359 35,100 496 Climbing Minneapolis Center
Wed 07:30:55 AM 46.3025 -99.0017 211° Southwest 312 359 35,600 443 Climbing Minneapolis Center
Wed 07:31:56 AM 46.2283 -99.0642 210° Southwest 310 357 36,000 198 Climbing Minneapolis Center
Wed 07:32:56 AM 46.1531 -99.1278 210° Southwest 313 360 36,000  Level Minneapolis Center
Wed 07:33:57 AM 46.0608 -99.2056 210° Southwest 320 368 36,000  Level Minneapolis Center
Wed 07:34:58 AM 45.9822 -99.2708 210° Southwest 324 373 36,000  Level Minneapolis Center
Wed 07:35:59 AM 45.9036 -99.3372 210° Southwest 327 376 36,000  Level Minneapolis Center
Wed 07:36:59 AM 45.8242 -99.4014 209° Southwest 327 376 36,000  Level Minneapolis Center
Wed 07:38:00 AM 45.7450 -99.4675 210° Southwest 328 377 36,000  Level Minneapolis Center
Wed 07:39:01 AM 45.6650 -99.5336 210° Southwest 330 380 36,000  Level Minneapolis Center
Wed 07:40:02 AM 45.5850 -99.5992 210° Southwest 331 381 36,000  Level Minneapolis Center
Wed 07:41:03 AM 45.5036 -99.6656 210° Southwest 333 383 36,000  Level Minneapolis Center
Wed 07:42:03 AM 45.4225 -99.7317 210° Southwest 335 386 36,000  Level Minneapolis Center
Wed 07:43:04 AM 45.3417 -99.7972 210° Southwest 335 386 36,000  Level Minneapolis Center
Wed 07:44:05 AM 45.2600 -99.8639 210° Southwest 337 388 36,000  Level Minneapolis Center
Wed 07:45:06 AM 45.1797 -99.9303 210° Southwest 338 389 36,000  Level Minneapolis Center
Wed 07:46:07 AM 45.0983 -99.9964 210° Southwest 338 389 36,000  Level Minneapolis Center
Wed 07:47:08 AM 45.0089 -100.0669 209° Southwest 331 381 36,000  Level Minneapolis Center
Wed 07:48:08 AM 44.9286 -100.1319 210° Southwest 332 382 36,000  Level Minneapolis Center
Wed 07:49:09 AM 44.8497 -100.1950 210° Southwest 330 380 36,000  Level Minneapolis Center
Wed 07:50:10 AM 44.7714 -100.2575 210° Southwest 327 376 36,000  Level Minneapolis Center
Wed 07:51:11 AM 44.6925 -100.3203 210° Southwest 326 375 36,000  Level Minneapolis Center
Wed 07:52:12 AM 44.6147 -100.3806 209° Southwest 322 371 36,000  Level Minneapolis Center
Wed 07:53:13 AM 44.5369 -100.4411 209° Southwest 320 368 36,000  Level Minneapolis Center
Wed 07:54:14 AM 44.4592 -100.5022 209° Southwest 321 369 36,000  Level Minneapolis Center
Wed 07:55:15 AM 44.3814 -100.5647 210° Southwest 322 371 36,000  Level Minneapolis Center
Wed 07:56:16 AM 44.3028 -100.6258 209° Southwest 323 372 36,000  Level Minneapolis Center
Wed 07:57:17 AM 44.2233 -100.6872 209° Southwest 326 375 36,000  Level Minneapolis Center
Wed 07:58:18 AM 44.1433 -100.7481 209° Southwest 326 375 36,000  Level Minneapolis Center
Wed 07:59:19 AM 44.0481 -100.8242 210° Southwest 328 377 36,000  Level Minneapolis Center
Wed 08:00:20 AM 43.9672 -100.8875 209° Southwest 331 381 36,000  Level Minneapolis Center
Wed 08:01:21 AM 43.8864 -100.9483 208° Southwest 332 382 36,000  Level Minneapolis Center
Wed 08:02:22 AM 43.8061 -101.0103 209° Southwest 331 381 36,000  Level Minneapolis Center
Wed 08:03:23 AM 43.7242 -101.0733 209° Southwest 334 384 36,000  Level Minneapolis Center
Wed 08:04:24 AM 43.6408 -101.1342 208° Southwest 337 388 36,000  Level Minneapolis Center
Wed 08:05:29 AM 43.5592 -101.1981 210° Southwest 339 390 36,000  Level Denver Center
Wed 08:06:29 AM 43.4767 -101.2586 208° Southwest 338 389 36,000  Level Denver Center
Wed 08:07:29 AM 43.3939 -101.3222 209° Southwest 339 390 36,000  Level Denver Center
Wed 08:08:30 AM 43.3106 -101.3856 209° Southwest 342 394 36,000  Level Denver Center
Wed 08:09:30 AM 43.2261 -101.4478 208° Southwest 342 394 36,000  Level Denver Center
Wed 08:10:31 AM 43.1414 -101.5122 209° Southwest 345 397 36,000  Level Denver Center
Wed 08:11:31 AM 43.0486 -101.5806 208° Southwest 346 398 36,000  Level Denver Center
Wed 08:12:32 AM 42.9672 -101.6406 208° Southwest 348 400 36,000  Level Denver Center
Wed 08:13:32 AM 42.8731 -101.7114 209° Southwest 346 398 36,000  Level Denver Center
Wed 08:14:32 AM 42.7917 -101.7714 208° Southwest 346 398 36,000  Level Denver Center
Wed 08:15:33 AM 42.7119 -101.8294 208° Southwest 347 399 36,000  Level Denver Center
Wed 08:16:45 AM 42.6019 -101.9097 208° Southwest 351 404 36,000  Level Denver Center
Wed 08:17:46 AM 42.5206 -101.9694 208° Southwest 348 400 36,000  Level Denver Center
Wed 08:18:46 AM 42.4264 -102.0383 208° Southwest 345 397 36,000  Level Denver Center
Wed 08:19:47 AM 42.3436 -102.0989 208° Southwest 350 403 36,000  Level Denver Center
Wed 08:20:48 AM 42.2606 -102.1581 208° Southwest 349 402 36,000  Level Denver Center
Wed 08:21:48 AM 42.1650 -102.2269 208° Southwest 350 403 36,000  Level Denver Center
Wed 08:22:49 AM 42.0822 -102.2864 208° Southwest 352 405 36,000  Level Denver Center
Wed 08:24:01 AM 41.9997 -102.3464 208° Southwest 351 404 36,000  Level Denver Center
Wed 08:25:02 AM 41.8903 -102.4247 208° Southwest 351 404 36,000  Level Denver Center
Wed 08:26:03 AM 41.8072 -102.4825 207° Southwest 351 404 36,000  Level Denver Center
Wed 08:27:03 AM 41.7264 -102.5414 209° Southwest 349 402 36,000  Level Denver Center
Wed 08:28:04 AM 41.6275 -102.6100 207° Southwest 353 406 36,000  Level Denver Center
Wed 08:29:04 AM 41.5433 -102.6689 208° Southwest 355 409 36,000  Level Denver Center
Wed 08:30:05 AM 41.4606 -102.7275 208° Southwest 353 406 36,000  Level Denver Center
Wed 08:31:06 AM 41.3636 -102.7958 208° Southwest 351 404 36,000  Level Denver Center
Wed 08:32:07 AM 41.2792 -102.8553 208° Southwest 356 410 36,000  Level Denver Center
Wed 08:33:07 AM 41.1958 -102.9114 207° Southwest 358 412 36,000 -50 Level Denver Center
Wed 08:34:08 AM 41.0972 -102.9850 209° Southwest 356 410 35,900 -541 Descending Denver Center
Wed 08:35:09 AM 41.0286 -103.0792 226° Southwest 372 428 34,900 -942 Descending Denver Center
Wed 08:36:09 AM 40.9608 -103.1722 226° Southwest 368 423 34,000 -942 Descending Denver Center
Wed 08:37:10 AM 40.8914 -103.2683 226° Southwest 360 414 33,000 -1,033 Descending Denver Center
Wed 08:38:11 AM 40.8219 -103.3633 226° Southwest 357 411 31,900 -1,033 Descending Denver Center
Wed 08:39:12 AM 40.7528 -103.4597 227° Southwest 358 412 30,900 -1,279 Descending Denver Center
Wed 08:40:13 AM 40.6814 -103.5578 226° Southwest 369 425 29,300 -1,736 Descending Denver Center
Wed 08:41:13 AM 40.6103 -103.6567 227° Southwest 368 423 27,400 -1,884 Descending Denver Center
Wed 08:42:14 AM 40.5428 -103.7500 226° Southwest 353 406 25,500 -1,869 Descending Denver Center
Wed 08:43:15 AM 40.4756 -103.8411 226° Southwest 345 397 23,600 -1,721 Descending Denver Center
Wed 08:44:16 AM 40.4053 -103.9378 226° Southwest 326 375 22,000 -1,279 Descending Denver Center
Wed 08:45:17 AM 40.3500 -104.0111 225° Southwest 286 329 21,000 -1,131 Descending Denver Center
Wed 08:46:18 AM 40.2908 -104.0761 220° Southwest 278 320 19,700 -1,377 Descending Denver Center
Wed 08:47:19 AM 40.2217 -104.1497 219° Southwest 297 342 18,200 -1,328 Descending Denver Center
Wed 08:48:20 AM 40.1592 -104.2194 220° Southwest 299 344 17,000 -1,230 Descending Denver Center
Wed 08:49:21 AM 40.0969 -104.2864 219° Southwest 293 337 15,700 -1,131 Descending Denver Center
Wed 08:50:22 AM 40.0350 -104.3542 220° Southwest 291 335 14,700 -1,011 Descending Denver Center
Wed 08:50:56 AM 40.0000 -104.4000 225° Southwest 292 336 14,100 -1,080 Descending Denver TRACON
Wed 08:52:02 AM 39.9333 -104.4667 217° Southwest 297 342 12,900 -1,190 Descending Denver TRACON
Wed 08:53:02 AM 39.8500 -104.5000 197° South 281 323 11,600 -1,301 Descending Denver TRACON
Wed 08:53:25 AM 39.8258 -104.5000 180° South 277 319 11,100 -714 Descending Denver Center
Wed 08:54:26 AM 39.7550 -104.5019 181° South 256 295 10,600 -787 Descending Denver Center
Wed 08:55:27 AM 39.6861 -104.5033 181° South 250 288 9,500 -1,082 Descending Denver Center
Wed 08:56:28 AM 39.6206 -104.5053 181° South 232 267 8,400 -738 Descending Denver Center
Wed 08:57:29 AM 39.5533 -104.5050 180° South 223 257 8,000 -197 Descending Denver Center
Wed 08:58:30 AM 39.5175 -104.5558 228° Southwest 242 278 8,000  Level Denver Center
Wed 08:59:43 AM 39.5294 -104.6419 280° West 197 227 8,000  Level Denver Center
Wed 09:00:44 AM 39.5836 -104.6464 356° North 195 224 8,000  Level Denver Center
Wed 09:01:45 AM 39.6386 -104.6433 North 197 227 8,000  Level Denver Center
Wed 09:02:46 AM 39.6900 -104.6436 360° North 187 215 8,000  Level Denver Center

Login

Don't have an account? Register now (free) for customized features, flight alerts, and more!